Flight Track Log - Related Links

Times and Time Zones

All times are in EDT time to prevent confusion due to time zone crossing. See the CRQ102 flight status page for this flight to view local times or setup timezone preferences in your user account.

Time Position Orientation Groundspeed Altitude Reporting Facility
EDT Latitude Longitude Course Direction KTS MPH feet Rate Location/Type
Mon 08:17:21 PM 49.6667 -74.7167 229° Southwest 160 184 7,100  Level Montreal Center
Mon 08:18:21 PM 49.6500 -74.7667 243° Southwest 150 173 8,400 1,300 Climbing Montreal Center
Mon 08:19:21 PM 49.6333 -74.8167 243° Southwest 160 184 9,700 1,350 Climbing Montreal Center
Mon 08:20:21 PM 49.6000 -74.8833 232° Southwest 160 184 11,100 1,200 Climbing Montreal Center
Mon 08:21:21 PM 49.5833 -74.9500 249° West 160 184 12,100 1,050 Climbing Montreal Center
Mon 08:22:21 PM 49.5500 -75.0000 224° Southwest 170 196 13,200 1,000 Climbing Montreal Center
Mon 08:23:21 PM 49.5333 -75.0667 249° West 170 196 14,100 850 Climbing Montreal Center
Mon 08:24:21 PM 49.5000 -75.1333 232° Southwest 170 196 14,900 800 Climbing Montreal Center
Mon 08:25:21 PM 49.4667 -75.1833 224° Southwest 180 207 15,700 600 Climbing Montreal Center
Mon 08:26:21 PM 49.4333 -75.2667 238° Southwest 180 207 16,100 300 Climbing Montreal Center
Mon 08:27:21 PM 49.4000 -75.3167 224° Southwest 200 230 16,300  Climbing Montreal Center
Mon 08:28:21 PM 49.3667 -75.4000 238° Southwest 210 242 16,100 -100 Descending Montreal Center
Mon 08:29:21 PM 49.3333 -75.4833 238° Southwest 220 253 16,100  Level Montreal Center
Mon 08:30:21 PM 49.3000 -75.5500 233° Southwest 220 253 16,100  Level Montreal Center
Mon 08:31:21 PM 49.2500 -75.6333 227° Southwest 220 253 16,100  Level Montreal Center
Mon 08:32:21 PM 49.2167 -75.7167 239° Southwest 220 253 16,100  Level Montreal Center
Mon 08:33:21 PM 49.1833 -75.7833 233° Southwest 220 253 16,100  Level Montreal Center
Mon 08:34:21 PM 49.1333 -75.8667 227° Southwest 230 265 16,100  Level Montreal Center
Mon 08:35:21 PM 49.1000 -75.9333 233° Southwest 220 253 16,100  Level Montreal Center
Mon 08:36:21 PM 49.0667 -76.0000 233° Southwest 220 253 16,100 -50 Level Montreal Center
Mon 08:37:21 PM 49.0333 -76.1000 243° Southwest 220 253 16,000  Descending Montreal Center
Mon 08:38:21 PM 49.0000 -76.1500 225° Southwest 220 253 16,100 50 Climbing Montreal Center
Mon 08:39:21 PM 48.9500 -76.2500 233° Southwest 220 253 16,100  Level Montreal Center
Mon 08:40:21 PM 48.9167 -76.3000 225° Southwest 220 253 16,100  Level Montreal Center
Mon 08:41:21 PM 48.8833 -76.4000 243° Southwest 220 253 16,100  Level Montreal Center
Mon 08:42:21 PM 48.8500 -76.4833 239° Southwest 220 253 16,100  Level Montreal Center
Mon 08:43:21 PM 48.8167 -76.5500 233° Southwest 220 253 16,100 50 Level Montreal Center
Mon 08:44:21 PM 48.8000 -76.6333 253° West 220 253 16,200  Climbing Montreal Center
Mon 08:45:21 PM 48.7500 -76.7000 221° Southwest 230 265 16,100 -50 Descending Montreal Center
Mon 08:46:21 PM 48.7167 -76.7833 239° Southwest 220 253 16,100  Level Montreal Center
Mon 08:47:21 PM 48.6833 -76.8500 233° Southwest 230 265 16,100  Level Montreal Center
Mon 08:48:21 PM 48.6333 -76.9333 228° Southwest 230 265 16,100  Level Montreal Center
Mon 08:49:21 PM 48.5833 -76.9833 213° Southwest 220 253 16,100 -250 Level Montreal Center
Mon 08:50:21 PM 48.5333 -77.0500 221° Southwest 230 265 15,600 -600 Descending Montreal Center
Mon 08:51:21 PM 48.5000 -77.1333 239° Southwest 240 276 14,900 -700 Descending Montreal Center
Mon 08:52:21 PM 48.4667 -77.2333 243° Southwest 240 276 14,200 -900 Descending Montreal Center
Mon 08:53:21 PM 48.4333 -77.3167 239° Southwest 240 276 13,100 -1,650 Descending Montreal Center
Mon 08:54:21 PM 48.3833 -77.4167 233° Southwest 230 265 10,900 -2,200 Descending Montreal Center
Mon 08:56:00 PM 48.3171 -77.5327 229° Southwest  Level FlightAware Approximate
Mon 09:03:00 PM 48.0500 -77.7667 146° Southeast  Level FlightAware Approximate
Mon 09:04:00 PM 48.0533 -77.7828 146° Southeast  Level Estimated
Mon 09:05:00 PM 48.0533 -77.7828 146° Southeast  Level Estimated
Mon 09:06:00 PM 48.0533 -77.7828 146° Southeast  Level Estimated
Mon 09:07:00 PM 48.0533 -77.7828 146° Southeast  Level Estimated
Mon 09:08:00 PM 48.0533 -77.7828 146° Southeast  Level Estimated

Login

Don't have an account? Register now (free) for customized features, flight alerts, and more!